Time;durP1;ratioP1;P1;durP2;ratioP2;P2;SDS_P1;SDS_P2;PMS_P1;PMS_P2;Temp;Humidity;BMP_temperature;BMP_pressure;BME280_temperature;BME280_humidity;BME280_pressure;Samples;Min_cycle;Max_cycle;Signal;HPM_P1;HPM_P2
2022/04/06 00:01:42;;;;;;;13.38;9.82;;;;;;;;;;5029629;28;20199;-77
2022/04/06 00:04:09;;;;;;;9.00;8.00;;;;;;;;;;5027931;28;20218;-77
2022/04/06 00:06:37;;;;;;;10.43;8.13;;;;;;;;;;5027228;28;20598;-77
2022/04/06 00:09:04;;;;;;;9.70;7.45;;;;;;;;;;5021153;28;20675;-79
2022/04/06 00:11:31;;;;;;;10.23;8.15;;;;;;;;;;5022379;28;20211;-77
2022/04/06 00:13:58;;;;;;;14.30;9.32;;;;;;;;;;5023032;28;20253;-77
2022/04/06 00:16:25;;;;;;;11.43;8.57;;;;;;;;;;5027440;28;20199;-77
2022/04/06 00:18:54;;;;;;;12.40;9.30;;;;;;;;;;5027522;28;20195;-78
2022/04/06 00:21:23;;;;;;;9.55;8.52;;;;;;;;;;5021230;28;20223;-78
2022/04/06 00:23:50;;;;;;;12.40;8.48;;;;;;;;;;5023422;28;20225;-78
2022/04/06 00:26:17;;;;;;;11.75;9.00;;;;;;;;;;5028525;28;20609;-77
2022/04/06 00:28:44;;;;;;;11.02;9.70;;;;;;;;;;5023887;28;20211;-78
2022/04/06 00:31:11;;;;;;;8.02;7.22;;;;;;;;;;5023126;28;20312;-78
2022/04/06 00:33:38;;;;;;;8.90;8.00;;;;;;;;;;5023691;28;20184;-79
2022/04/06 00:36:07;;;;;;;14.00;9.65;;;;;;;;;;5022175;28;20560;-77
2022/04/06 00:38:34;;;;;;;10.45;7.30;;;;;;;;;;5022810;28;20224;-78
2022/04/06 00:41:01;;;;;;;10.52;8.10;;;;;;;;;;5029137;28;20648;-79
2022/04/06 00:43:28;;;;;;;12.68;8.88;;;;;;;;;;5026870;28;20313;-77
2022/04/06 00:45:55;;;;;;;9.77;8.70;;;;;;;;;;5021771;28;20203;-77
2022/04/06 00:48:22;;;;;;;15.55;8.85;;;;;;;;;;5019313;28;20188;-78
2022/04/06 00:50:49;;;;;;;11.20;7.32;;;;;;;;;;5031681;28;20226;-78
2022/04/06 00:53:18;;;;;;;13.02;8.23;;;;;;;;;;5012968;28;20278;-78
2022/04/06 00:55:45;;;;;;;13.57;8.32;;;;;;;;;;5024667;28;20188;-79
2022/04/06 00:58:12;;;;;;;12.88;8.55;;;;;;;;;;5016964;28;20206;-78
2022/04/06 01:00:39;;;;;;;11.10;8.77;;;;;;;;;;5020065;28;20191;-77
2022/04/06 01:03:06;;;;;;;9.32;7.30;;;;;;;;;;5024353;28;20204;-77
2022/04/06 01:05:33;;;;;;;8.82;8.02;;;;;;;;;;5020814;28;20223;-78
2022/04/06 01:08:01;;;;;;;8.77;7.22;;;;;;;;;;5025827;28;20226;-78
2022/04/06 01:10:29;;;;;;;9.32;7.30;;;;;;;;;;5024489;28;20220;-78
2022/04/06 01:12:57;;;;;;;11.70;7.88;;;;;;;;;;5023517;28;20214;-78
2022/04/06 01:15:25;;;;;;;8.20;7.40;;;;;;;;;;5024888;28;22243;-77
2022/04/06 01:17:53;;;;;;;13.68;7.32;;;;;;;;;;5025359;28;20204;-77
2022/04/06 01:20:20;;;;;;;10.95;7.90;;;;;;;;;;5028153;28;20199;-78
2022/04/06 01:22:48;;;;;;;8.70;7.85;;;;;;;;;;5016921;28;20211;-77
2022/04/06 01:25:15;;;;;;;13.45;7.85;;;;;;;;;;5025365;28;20215;-78
2022/04/06 01:27:42;;;;;;;10.02;7.05;;;;;;;;;;5026396;28;20228;-79
2022/04/06 01:30:10;;;;;;;12.10;7.53;;;;;;;;;;5026088;28;20195;-78
2022/04/06 01:32:37;;;;;;;7.60;6.90;;;;;;;;;;5024357;28;20200;-77
2022/04/06 01:35:05;;;;;;;13.95;8.13;;;;;;;;;;5026933;28;20218;-77
2022/04/06 01:37:34;;;;;;;12.20;8.07;;;;;;;;;;5024090;28;20196;-76
2022/04/06 01:40:04;;;;;;;13.52;10.80;;;;;;;;;;5011874;28;20200;-77
2022/04/06 01:42:31;;;;;;;9.82;7.03;;;;;;;;;;5019004;28;20215;-77
2022/04/06 01:44:59;;;;;;;12.32;6.28;;;;;;;;;;5027552;28;20202;-76
2022/04/06 01:47:26;;;;;;;10.20;6.35;;;;;;;;;;5020855;28;20203;-76
2022/04/06 01:52:38;;;;;;;11.32;7.45;;;;;;;;;;5020536;28;20210;-76
2022/04/06 01:55:07;;;;;;;7.05;6.00;;;;;;;;;;5028960;28;20188;-76
2022/04/06 01:57:35;;;;;;;11.32;6.75;;;;;;;;;;5024814;28;20254;-77
2022/04/06 02:00:02;;;;;;;10.68;7.45;;;;;;;;;;5022987;28;20566;-76
2022/04/06 02:02:31;;;;;;;13.55;6.93;;;;;;;;;;5024913;28;20204;-77
2022/04/06 02:04:59;;;;;;;9.57;6.30;;;;;;;;;;5020727;28;20495;-76
2022/04/06 02:07:26;;;;;;;13.88;6.65;;;;;;;;;;5024352;28;20231;-76
2022/04/06 02:09:53;;;;;;;11.27;6.70;;;;;;;;;;5024379;28;20219;-76
2022/04/06 02:12:22;;;;;;;8.00;6.18;;;;;;;;;;5021422;28;20314;-76
2022/04/06 02:14:49;;;;;;;11.27;6.35;;;;;;;;;;5022083;28;20570;-76
2022/04/06 02:17:16;;;;;;;15.00;6.95;;;;;;;;;;5023743;28;20196;-77
2022/04/06 02:19:43;;;;;;;8.57;5.95;;;;;;;;;;5026128;28;20547;-77
2022/04/06 02:22:11;;;;;;;13.30;6.93;;;;;;;;;;5013321;28;20203;-76
2022/04/06 02:24:38;;;;;;;9.73;6.43;;;;;;;;;;5029608;28;20223;-76
2022/04/06 02:27:06;;;;;;;10.23;6.50;;;;;;;;;;5023075;28;20237;-77
2022/04/06 02:29:35;;;;;;;10.25;5.97;;;;;;;;;;5021663;28;20231;-76
2022/04/06 02:32:02;;;;;;;9.45;6.35;;;;;;;;;;5030068;28;20219;-77
2022/04/06 02:34:29;;;;;;;9.88;5.57;;;;;;;;;;5027645;28;20196;-76
2022/04/06 02:36:56;;;;;;;9.23;5.70;;;;;;;;;;5019801;28;20239;-76
2022/04/06 02:39:23;;;;;;;10.85;6.10;;;;;;;;;;5030566;28;20207;-76
2022/04/06 02:41:50;;;;;;;9.82;5.78;;;;;;;;;;5029594;28;20204;-77
2022/04/06 02:44:17;;;;;;;9.93;5.40;;;;;;;;;;5030578;28;20207;-77
2022/04/06 02:46:46;;;;;;;10.63;5.63;;;;;;;;;;5030149;28;20554;-76
2022/04/06 02:49:13;;;;;;;9.77;6.75;;;;;;;;;;5028105;28;20207;-77
2022/04/06 02:51:40;;;;;;;8.63;6.88;;;;;;;;;;5029724;28;20227;-76
2022/04/06 02:54:07;;;;;;;11.70;6.10;;;;;;;;;;5030639;28;20199;-77
2022/04/06 02:56:34;;;;;;;7.13;4.95;;;;;;;;;;5026307;28;20194;-79
2022/04/06 02:59:02;;;;;;;12.50;5.20;;;;;;;;;;5029298;28;20493;-78
2022/04/06 03:01:29;;;;;;;6.85;4.85;;;;;;;;;;5029550;28;20282;-79
2022/04/06 03:03:57;;;;;;;10.10;6.80;;;;;;;;;;5020565;28;20190;-77
2022/04/06 03:06:24;;;;;;;6.20;5.55;;;;;;;;;;5029986;28;20192;-82
2022/04/06 03:08:52;;;;;;;7.50;5.78;;;;;;;;;;5027515;28;20696;-80
2022/04/06 03:11:19;;;;;;;7.40;5.20;;;;;;;;;;5022609;28;20212;-79
2022/04/06 03:13:46;;;;;;;6.30;5.40;;;;;;;;;;5028972;28;20222;-79
2022/04/06 03:16:13;;;;;;;10.98;6.03;;;;;;;;;;5030341;28;20646;-81
2022/04/06 03:18:40;;;;;;;10.90;6.30;;;;;;;;;;5028677;28;20195;-78
2022/04/06 03:21:08;;;;;;;6.55;5.45;;;;;;;;;;5029459;28;20199;-77
2022/04/06 03:23:35;;;;;;;9.63;6.05;;;;;;;;;;5020886;28;20195;-77
2022/04/06 03:26:03;;;;;;;11.55;7.60;;;;;;;;;;5024717;28;20222;-77
2022/04/06 03:28:30;;;;;;;13.45;6.47;;;;;;;;;;5021077;28;20192;-76
2022/04/06 03:30:57;;;;;;;6.95;4.78;;;;;;;;;;5027614;28;20216;-76
2022/04/06 03:33:24;;;;;;;6.55;5.50;;;;;;;;;;5031420;28;20192;-77
2022/04/06 03:35:51;;;;;;;6.53;5.82;;;;;;;;;;5031962;28;20207;-78
2022/04/06 03:38:20;;;;;;;13.27;5.43;;;;;;;;;;5028979;28;20196;-77
2022/04/06 03:40:47;;;;;;;9.98;5.20;;;;;;;;;;5027596;28;20675;-77
2022/04/06 03:43:14;;;;;;;8.82;6.10;;;;;;;;;;5022921;28;20257;-78
2022/04/06 03:45:41;;;;;;;11.77;6.57;;;;;;;;;;5025636;28;20199;-77
2022/04/06 03:48:09;;;;;;;11.25;5.25;;;;;;;;;;5031208;28;20198;-76
2022/04/06 03:50:36;;;;;;;9.38;5.25;;;;;;;;;;5020747;28;20202;-77
2022/04/06 03:53:03;;;;;;;17.55;5.95;;;;;;;;;;5023819;28;20196;-77
2022/04/06 03:55:31;;;;;;;5.30;4.80;;;;;;;;;;5024769;28;20282;-76
2022/04/06 03:57:59;;;;;;;10.18;4.47;;;;;;;;;;5023193;28;20211;-77
2022/04/06 04:00:26;;;;;;;8.30;5.55;;;;;;;;;;5027482;28;20681;-77
2022/04/06 04:02:53;;;;;;;8.95;5.30;;;;;;;;;;5029204;28;20204;-76
2022/04/06 04:05:20;;;;;;;8.60;4.28;;;;;;;;;;5028555;28;20200;-77
2022/04/06 04:07:47;;;;;;;9.82;5.80;;;;;;;;;;5028877;28;20278;-77
2022/04/06 04:10:19;;;;;;;8.68;4.60;;;;;;;;;;5028110;28;20826;-78
2022/04/06 04:12:47;;;;;;;8.52;4.03;;;;;;;;;;5021616;28;20227;-76
2022/04/06 04:15:14;;;;;;;7.60;4.57;;;;;;;;;;5030081;28;20196;-77
2022/04/06 04:17:42;;;;;;;9.43;4.68;;;;;;;;;;5026782;28;20199;-76
2022/04/06 04:20:09;;;;;;;6.22;4.72;;;;;;;;;;5027896;28;20196;-77
2022/04/06 04:22:36;;;;;;;9.15;5.53;;;;;;;;;;5019780;28;20203;-77
2022/04/06 04:25:04;;;;;;;4.32;3.97;;;;;;;;;;5020562;28;20223;-77
2022/04/06 04:27:31;;;;;;;7.68;4.82;;;;;;;;;;5022647;28;20202;-77
2022/04/06 04:30:00;;;;;;;4.13;3.72;;;;;;;;;;5026737;28;20195;-76
2022/04/06 04:32:27;;;;;;;6.40;4.10;;;;;;;;;;5027937;28;20215;-76
2022/04/06 04:34:54;;;;;;;6.93;4.25;;;;;;;;;;5028608;28;20195;-77
2022/04/06 04:37:21;;;;;;;5.90;4.05;;;;;;;;;;5026661;28;20191;-76
2022/04/06 04:39:48;;;;;;;7.63;3.85;;;;;;;;;;5027519;28;20199;-77
2022/04/06 04:42:15;;;;;;;11.82;3.50;;;;;;;;;;5025113;28;20210;-76
2022/04/06 04:44:42;;;;;;;7.95;3.92;;;;;;;;;;5022845;28;20200;-76
2022/04/06 04:47:10;;;;;;;5.47;4.35;;;;;;;;;;5026826;28;20210;-77
2022/04/06 04:49:38;;;;;;;6.43;5.22;;;;;;;;;;5028239;28;20230;-76
2022/04/06 04:52:05;;;;;;;4.80;4.13;;;;;;;;;;5023926;28;20223;-76
2022/04/06 04:54:32;;;;;;;7.18;4.13;;;;;;;;;;5020016;28;20207;-76
2022/04/06 04:56:59;;;;;;;9.02;5.03;;;;;;;;;;5023079;28;20222;-75
2022/04/06 04:59:26;;;;;;;5.63;4.20;;;;;;;;;;5022484;28;20192;-76
2022/04/06 05:01:53;;;;;;;7.57;3.95;;;;;;;;;;5026436;28;20375;-76
2022/04/06 05:04:22;;;;;;;7.03;4.03;;;;;;;;;;5018285;28;20196;-76
2022/04/06 05:06:49;;;;;;;7.15;3.60;;;;;;;;;;5025839;28;20578;-76
2022/04/06 05:09:17;;;;;;;6.43;4.35;;;;;;;;;;5028964;28;20196;-76
2022/04/06 05:11:44;;;;;;;10.48;4.70;;;;;;;;;;5024117;28;20690;-76
2022/04/06 05:14:11;;;;;;;4.65;2.92;;;;;;;;;;5020637;28;20215;-75
2022/04/06 05:16:38;;;;;;;4.00;3.45;;;;;;;;;;5024018;28;20206;-76
2022/04/06 05:19:06;;;;;;;6.00;3.63;;;;;;;;;;5023977;28;20287;-76
2022/04/06 05:21:34;;;;;;;5.10;4.22;;;;;;;;;;5029068;28;20597;-75
2022/04/06 05:24:04;;;;;;;3.67;2.95;;;;;;;;;;5028929;28;20622;-76
2022/04/06 05:26:31;;;;;;;3.47;2.97;;;;;;;;;;5027452;28;20634;-78
2022/04/06 05:28:58;;;;;;;4.43;2.88;;;;;;;;;;5021435;28;20203;-79
2022/04/06 05:31:25;;;;;;;6.15;3.25;;;;;;;;;;5023817;28;20216;-79
2022/04/06 05:33:53;;;;;;;6.70;3.95;;;;;;;;;;5016969;28;20207;-79
2022/04/06 05:36:20;;;;;;;11.23;3.58;;;;;;;;;;5030764;28;20222;-78
2022/04/06 05:38:49;;;;;;;5.07;3.65;;;;;;;;;;5024664;28;20203;-79
2022/04/06 05:41:16;;;;;;;4.72;3.78;;;;;;;;;;5030702;28;20210;-78
2022/04/06 05:43:43;;;;;;;3.60;3.05;;;;;;;;;;5026892;28;20618;-75
2022/04/06 05:46:10;;;;;;;8.20;3.65;;;;;;;;;;5027024;28;20589;-78
2022/04/06 05:48:37;;;;;;;4.78;3.42;;;;;;;;;;5028011;28;20649;-76
2022/04/06 05:51:05;;;;;;;4.10;3.25;;;;;;;;;;5024015;28;20208;-77
2022/04/06 05:53:32;;;;;;;9.45;4.20;;;;;;;;;;5018579;28;20302;-76
2022/04/06 05:56:00;;;;;;;3.17;2.72;;;;;;;;;;5027774;28;20199;-76
2022/04/06 05:58:27;;;;;;;4.90;3.13;;;;;;;;;;5018888;28;20196;-76
2022/04/06 06:00:54;;;;;;;6.72;3.30;;;;;;;;;;5025566;28;20219;-75
2022/04/06 06:03:21;;;;;;;4.50;3.10;;;;;;;;;;5022604;28;20196;-75
2022/04/06 06:05:48;;;;;;;5.75;3.15;;;;;;;;;;5028439;28;20199;-75
2022/04/06 06:08:15;;;;;;;6.22;3.10;;;;;;;;;;5020065;28;20290;-75
2022/04/06 06:10:42;;;;;;;4.35;2.70;;;;;;;;;;5031855;28;20199;-75
2022/04/06 06:13:11;;;;;;;3.55;2.30;;;;;;;;;;5025949;28;20709;-75
2022/04/06 06:15:38;;;;;;;3.65;2.92;;;;;;;;;;5026462;28;20210;-76
2022/04/06 06:18:05;;;;;;;3.28;2.35;;;;;;;;;;5025314;28;20196;-76
2022/04/06 06:20:32;;;;;;;4.88;3.20;;;;;;;;;;5021088;28;20195;-76
2022/04/06 06:22:59;;;;;;;7.57;3.10;;;;;;;;;;5023363;28;20210;-77
2022/04/06 06:25:27;;;;;;;5.85;3.05;;;;;;;;;;5028679;28;20261;-78
2022/04/06 06:27:54;;;;;;;8.60;2.95;;;;;;;;;;5027418;28;20290;-77
2022/04/06 06:30:26;;;;;;;5.38;2.75;;;;;;;;;;5025361;28;20208;-76
2022/04/06 06:32:53;;;;;;;4.53;2.50;;;;;;;;;;5026055;28;20712;-76
2022/04/06 06:35:21;;;;;;;4.30;2.30;;;;;;;;;;5029432;28;20642;-76
2022/04/06 06:37:48;;;;;;;6.03;2.33;;;;;;;;;;5030784;28;20282;-76
2022/04/06 06:40:16;;;;;;;5.05;3.25;;;;;;;;;;5023163;28;20684;-78
2022/04/06 06:42:43;;;;;;;3.28;2.88;;;;;;;;;;5028485;28;20200;-77
2022/04/06 06:45:11;;;;;;;3.00;2.60;;;;;;;;;;5030623;28;20646;-76
2022/04/06 06:47:40;;;;;;;4.28;3.00;;;;;;;;;;5029129;28;20203;-77
2022/04/06 06:50:07;;;;;;;5.57;2.47;;;;;;;;;;5031417;28;20211;-76
2022/04/06 06:52:35;;;;;;;6.05;3.00;;;;;;;;;;5029875;28;20246;-76
2022/04/06 06:55:02;;;;;;;6.93;2.42;;;;;;;;;;5027735;28;20227;-76
2022/04/06 06:57:29;;;;;;;5.35;2.60;;;;;;;;;;5024949;28;20211;-77
2022/04/06 06:59:56;;;;;;;5.40;2.80;;;;;;;;;;5026839;28;20200;-76
2022/04/06 07:02:23;;;;;;;7.85;3.20;;;;;;;;;;5029277;28;20192;-76
2022/04/06 07:04:52;;;;;;;5.95;2.80;;;;;;;;;;5031340;28;20621;-76
2022/04/06 07:07:19;;;;;;;4.05;2.55;;;;;;;;;;5023671;28;20587;-77
2022/04/06 07:09:46;;;;;;;6.15;2.90;;;;;;;;;;5030736;28;20215;-78
2022/04/06 07:12:13;;;;;;;4.20;2.35;;;;;;;;;;5026896;28;20552;-77
2022/04/06 07:14:40;;;;;;;5.90;2.05;;;;;;;;;;5027255;28;20187;-76
2022/04/06 07:17:07;;;;;;;6.40;3.10;;;;;;;;;;5023079;28;20204;-77
2022/04/06 07:19:35;;;;;;;7.60;2.67;;;;;;;;;;5025698;28;20219;-77
2022/04/06 07:22:03;;;;;;;6.15;2.53;;;;;;;;;;5025966;28;20659;-76
2022/04/06 07:24:30;;;;;;;5.25;2.40;;;;;;;;;;5028678;28;20655;-77
2022/04/06 07:26:57;;;;;;;5.50;2.40;;;;;;;;;;5030182;28;20226;-77
2022/04/06 07:29:24;;;;;;;6.00;2.58;;;;;;;;;;5030460;28;20574;-77
2022/04/06 07:31:51;;;;;;;8.35;2.60;;;;;;;;;;5026028;28;20708;-77
2022/04/06 07:34:18;;;;;;;3.38;2.55;;;;;;;;;;5031430;28;20203;-77
2022/04/06 07:36:45;;;;;;;4.10;2.00;;;;;;;;;;5030775;28;20196;-77
2022/04/06 07:39:14;;;;;;;3.88;2.22;;;;;;;;;;5030694;28;20207;-77
2022/04/06 07:41:41;;;;;;;4.57;2.30;;;;;;;;;;5033777;28;20202;-78
2022/04/06 07:44:08;;;;;;;5.28;2.60;;;;;;;;;;5025745;28;20200;-77
2022/04/06 07:46:36;;;;;;;4.22;2.67;;;;;;;;;;5034303;28;20188;-77
2022/04/06 07:49:06;;;;;;;3.63;2.92;;;;;;;;;;5029920;28;20202;-78
2022/04/06 07:51:33;;;;;;;4.70;2.38;;;;;;;;;;5027998;28;20231;-77
2022/04/06 07:54:00;;;;;;;3.88;2.30;;;;;;;;;;5025900;28;20223;-77
2022/04/06 07:56:28;;;;;;;4.18;2.08;;;;;;;;;;5033147;28;20682;-78
2022/04/06 07:58:55;;;;;;;3.20;2.80;;;;;;;;;;5026995;28;20207;-75
2022/04/06 08:01:22;;;;;;;4.43;2.15;;;;;;;;;;5029464;28;20214;-75
2022/04/06 08:03:50;;;;;;;3.33;2.55;;;;;;;;;;5028449;28;20204;-74
2022/04/06 08:06:17;;;;;;;7.68;2.63;;;;;;;;;;5029939;28;20527;-77
2022/04/06 08:08:44;;;;;;;4.90;2.60;;;;;;;;;;5029022;28;20673;-78
2022/04/06 08:11:11;;;;;;;5.28;2.70;;;;;;;;;;5028842;28;20199;-79
2022/04/06 08:13:39;;;;;;;5.95;2.90;;;;;;;;;;5025481;28;20222;-78
2022/04/06 08:16:06;;;;;;;6.35;2.95;;;;;;;;;;5028569;28;20210;-75
2022/04/06 08:18:33;;;;;;;4.25;3.00;;;;;;;;;;5025376;28;20191;-74
2022/04/06 08:21:01;;;;;;;4.20;2.25;;;;;;;;;;5030957;28;20191;-75
2022/04/06 08:23:28;;;;;;;5.75;1.92;;;;;;;;;;5025737;28;20207;-75
2022/04/06 08:25:55;;;;;;;4.68;1.83;;;;;;;;;;5028691;28;20207;-76
2022/04/06 08:28:22;;;;;;;2.60;2.00;;;;;;;;;;5023846;28;20203;-76
2022/04/06 08:30:50;;;;;;;3.63;2.55;;;;;;;;;;5031424;28;20195;-76
2022/04/06 08:33:18;;;;;;;4.75;2.70;;;;;;;;;;5031687;28;20230;-76
2022/04/06 08:35:45;;;;;;;3.30;2.10;;;;;;;;;;5025470;28;20202;-73
2022/04/06 08:38:13;;;;;;;6.38;2.25;;;;;;;;;;5032440;28;20215;-75
2022/04/06 08:40:42;;;;;;;5.65;2.20;;;;;;;;;;5030875;28;20269;-75
2022/04/06 08:43:09;;;;;;;5.10;1.95;;;;;;;;;;5024660;28;20203;-75
2022/04/06 08:45:38;;;;;;;2.33;2.05;;;;;;;;;;5030524;28;20200;-76
2022/04/06 08:48:08;;;;;;;3.97;2.42;;;;;;;;;;5028313;28;20717;-79
2022/04/06 08:50:36;;;;;;;3.15;2.85;;;;;;;;;;5034080;28;20257;-79
2022/04/06 08:53:03;;;;;;;2.28;1.90;;;;;;;;;;5029383;28;20225;-78
2022/04/06 08:55:30;;;;;;;6.00;2.25;;;;;;;;;;5029643;28;20290;-78
2022/04/06 08:57:57;;;;;;;3.08;2.30;;;;;;;;;;5027571;28;20199;-79
2022/04/06 09:00:26;;;;;;;3.88;2.03;;;;;;;;;;5028164;28;20200;-79
2022/04/06 09:02:53;;;;;;;4.20;2.05;;;;;;;;;;5027289;28;20286;-79
2022/04/06 09:05:23;;;;;;;2.58;2.10;;;;;;;;;;5026918;28;20657;-79
2022/04/06 09:07:51;;;;;;;2.33;1.95;;;;;;;;;;5027179;28;20207;-79
2022/04/06 09:10:28;;;;;;;3.38;2.30;;;;;;;;;;5029653;28;20199;-78
2022/04/06 09:13:07;;;;;;;3.33;1.70;;;;;;;;;;5017782;28;20275;-79
2022/04/06 09:15:34;;;;;;;4.90;2.90;;;;;;;;;;5029994;28;20558;-79
2022/04/06 09:18:02;;;;;;;2.80;1.55;;;;;;;;;;5029819;28;20203;-79
2022/04/06 09:20:31;;;;;;;5.95;2.20;;;;;;;;;;5025751;28;20195;-78
2022/04/06 09:23:00;;;;;;;5.35;1.95;;;;;;;;;;5022080;28;20233;-77
2022/04/06 09:25:33;;;;;;;2.35;2.00;;;;;;;;;;5028729;28;20306;-79
2022/04/06 09:28:06;;;;;;;3.10;2.35;;;;;;;;;;5029968;28;20217;-79
2022/04/06 09:30:34;;;;;;;2.90;2.38;;;;;;;;;;5028557;28;20637;-79
2022/04/06 09:33:03;;;;;;;2.72;2.38;;;;;;;;;;5028390;28;20214;-79
2022/04/06 09:35:34;;;;;;;4.15;2.05;;;;;;;;;;5029159;28;20223;-79
2022/04/06 09:38:10;;;;;;;5.13;2.78;;;;;;;;;;5030506;28;20291;-79
2022/04/06 09:40:39;;;;;;;3.45;1.75;;;;;;;;;;5029763;28;20191;-79
2022/04/06 09:43:07;;;;;;;4.10;2.35;;;;;;;;;;5031432;28;20195;-79
2022/04/06 09:48:18;;;;;;;4.47;2.03;;;;;;;;;;5033688;28;20489;-79
2022/04/06 09:50:55;;;;;;;2.75;1.90;;;;;;;;;;5032913;28;20199;-78
2022/04/06 09:53:25;;;;;;;4.30;1.60;;;;;;;;;;5029175;28;20302;-79
2022/04/06 09:55:53;;;;;;;3.90;1.65;;;;;;;;;;5029680;28;20196;-78
2022/04/06 09:58:22;;;;;;;2.25;1.70;;;;;;;;;;5029217;28;20654;-78
2022/04/06 10:00:49;;;;;;;3.40;2.80;;;;;;;;;;5030300;28;20199;-78
2022/04/06 10:03:17;;;;;;;3.10;1.63;;;;;;;;;;5033560;28;20199;-79
2022/04/06 10:05:45;;;;;;;5.97;1.73;;;;;;;;;;5032974;28;20219;-79
2022/04/06 10:08:13;;;;;;;2.40;1.70;;;;;;;;;;5031492;28;20192;-78
2022/04/06 10:10:42;;;;;;;2.67;1.73;;;;;;;;;;5031585;28;20973;-79
2022/04/06 10:13:09;;;;;;;3.47;1.92;;;;;;;;;;5029731;28;20218;-79
2022/04/06 10:15:37;;;;;;;3.03;2.08;;;;;;;;;;5032017;28;20196;-77
2022/04/06 10:18:04;;;;;;;1.50;1.40;;;;;;;;;;5014994;28;20574;-79
2022/04/06 10:20:38;;;;;;;3.28;2.10;;;;;;;;;;5033602;28;20203;-78
2022/04/06 10:23:10;;;;;;;7.38;4.03;;;;;;;;;;5030643;28;20199;-78
2022/04/06 10:25:44;;;;;;;3.30;1.67;;;;;;;;;;5033438;28;20674;-78
2022/04/06 10:28:11;;;;;;;1.65;1.52;;;;;;;;;;5028107;28;20283;-78
2022/04/06 10:30:39;;;;;;;5.25;1.75;;;;;;;;;;5026331;28;20204;-74
2022/04/06 10:33:19;;;;;;;3.85;2.10;;;;;;;;;;5033493;28;20989;-79
2022/04/06 10:35:46;;;;;;;2.55;1.55;;;;;;;;;;5032458;28;20231;-77
2022/04/06 10:38:15;;;;;;;1.92;1.30;;;;;;;;;;5032334;28;20199;-78
2022/04/06 10:41:07;;;;;;;4.85;1.85;;;;;;;;;;5029342;28;20253;-77
2022/04/06 10:43:50;;;;;;;4.72;2.25;;;;;;;;;;5021797;28;20199;-78
2022/04/06 10:46:18;;;;;;;6.20;1.40;;;;;;;;;;5026259;28;20199;-77
2022/04/06 10:48:58;;;;;;;3.50;1.52;;;;;;;;;;5030998;28;20208;-79
2022/04/06 10:51:29;;;;;;;1.50;1.10;;;;;;;;;;5017829;28;20211;-79
2022/04/06 10:53:56;;;;;;;3.03;1.70;;;;;;;;;;5031569;28;20697;-77
2022/04/06 10:56:25;;;;;;;5.13;1.50;;;;;;;;;;5028340;28;20199;-78
2022/04/06 10:59:09;;;;;;;5.00;1.83;;;;;;;;;;5028334;28;20211;-79
2022/04/06 11:01:38;;;;;;;5.10;1.40;;;;;;;;;;5027774;28;20269;-78
2022/04/06 11:04:06;;;;;;;2.80;1.60;;;;;;;;;;5030935;28;20210;-76
2022/04/06 11:07:00;;;;;;;3.25;1.40;;;;;;;;;;5029025;28;20206;-78
2022/04/06 11:12:15;;;;;;;1.38;1.25;;;;;;;;;;5030246;28;20333;-77
2022/04/06 11:14:43;;;;;;;1.60;1.48;;;;;;;;;;5028743;28;20228;-78
2022/04/06 11:17:30;;;;;;;2.80;1.33;;;;;;;;;;5036650;28;20217;-77
2022/04/06 11:19:57;;;;;;;2.08;1.30;;;;;;;;;;5032595;28;20664;-76
2022/04/06 11:22:24;;;;;;;3.38;1.83;;;;;;;;;;5027980;28;20199;-77
2022/04/06 11:24:51;;;;;;;2.28;1.67;;;;;;;;;;5028728;28;20234;-77
2022/04/06 11:27:30;;;;;;;4.85;1.50;;;;;;;;;;5029859;28;20230;-78
2022/04/06 11:30:05;;;;;;;2.58;1.90;;;;;;;;;;5026862;28;20630;-77
2022/04/06 11:32:32;;;;;;;2.50;1.50;;;;;;;;;;5023755;28;20206;-79
2022/04/06 11:35:01;;;;;;;3.90;1.25;;;;;;;;;;5025666;28;20225;-77
2022/04/06 11:37:28;;;;;;;2.85;1.55;;;;;;;;;;5022649;28;20242;-74
2022/04/06 11:40:01;;;;;;;2.90;1.10;;;;;;;;;;5022123;28;20206;-74
2022/04/06 11:42:30;;;;;;;2.28;1.02;;;;;;;;;;5027081;28;20191;-77
2022/04/06 11:44:57;;;;;;;3.67;1.17;;;;;;;;;;5030093;28;20196;-79
2022/04/06 11:47:34;;;;;;;2.47;1.23;;;;;;;;;;5024365;28;20566;-76
2022/04/06 11:50:01;;;;;;;2.65;1.60;;;;;;;;;;5016834;28;20536;-79
2022/04/06 11:52:28;;;;;;;2.58;1.67;;;;;;;;;;5021731;28;20195;-76
2022/04/06 11:54:56;;;;;;;4.82;1.73;;;;;;;;;;5026818;28;21418;-76
2022/04/06 11:57:33;;;;;;;3.60;1.60;;;;;;;;;;5026890;28;20286;-78
2022/04/06 12:00:03;;;;;;;1.45;1.10;;;;;;;;;;5021212;28;20230;-78
2022/04/06 12:02:30;;;;;;;2.35;1.25;;;;;;;;;;5026011;28;20589;-77
2022/04/06 12:05:00;;;;;;;2.35;1.48;;;;;;;;;;5028392;28;20203;-76
2022/04/06 12:07:27;;;;;;;1.77;1.20;;;;;;;;;;5025505;28;20205;-76
2022/04/06 12:09:54;;;;;;;4.03;1.75;;;;;;;;;;5031200;28;20200;-79
2022/04/06 12:12:23;;;;;;;1.85;1.25;;;;;;;;;;5027512;28;20223;-78
2022/04/06 12:14:51;;;;;;;1.98;1.35;;;;;;;;;;5026655;28;20219;-79
2022/04/06 12:17:21;;;;;;;2.85;1.00;;;;;;;;;;5028094;28;20547;-78
2022/04/06 12:19:48;;;;;;;1.70;1.40;;;;;;;;;;5027307;28;20204;-78
2022/04/06 12:22:15;;;;;;;2.67;1.95;;;;;;;;;;5026788;28;20219;-79
2022/04/06 12:24:50;;;;;;;4.80;1.40;;;;;;;;;;5096601;27;20516;-76
2022/04/06 12:27:28;;;;;;;3.45;1.73;;;;;;;;;;5088094;28;20228;-77
2022/04/06 12:30:05;;;;;;;2.88;1.20;;;;;;;;;;5095932;28;20212;-77
2022/04/06 12:32:42;;;;;;;2.90;1.25;;;;;;;;;;5100185;28;20613;-76
2022/04/06 12:35:17;;;;;;;6.07;2.33;;;;;;;;;;5104618;28;20219;-76
2022/04/06 12:37:44;;;;;;;2.33;1.55;;;;;;;;;;5085177;28;20196;-77
2022/04/06 12:40:13;;;;;;;2.20;1.70;;;;;;;;;;5097113;28;20514;-77
2022/04/06 12:42:41;;;;;;;2.08;1.60;;;;;;;;;;5098125;28;20288;-75
2022/04/06 12:45:10;;;;;;;2.33;1.45;;;;;;;;;;5088014;28;20203;-77
2022/04/06 12:47:37;;;;;;;1.60;1.50;;;;;;;;;;5101733;28;20285;-75
2022/04/06 12:50:14;;;;;;;3.95;1.58;;;;;;;;;;5099261;28;20190;-77
2022/04/06 12:52:41;;;;;;;2.70;1.30;;;;;;;;;;5087756;28;20189;-78
2022/04/06 12:55:09;;;;;;;1.60;1.50;;;;;;;;;;5108094;28;20195;-76
2022/04/06 12:57:38;;;;;;;1.17;1.00;;;;;;;;;;5107931;28;20205;-76
2022/04/06 13:00:07;;;;;;;3.03;1.77;;;;;;;;;;5108623;28;20235;-76
2022/04/06 13:02:36;;;;;;;2.55;1.27;;;;;;;;;;5104462;28;20719;-76
2022/04/06 13:05:05;;;;;;;2.63;1.85;;;;;;;;;;5096026;28;20194;-77
2022/04/06 13:07:33;;;;;;;1.30;1.00;;;;;;;;;;5094458;28;20192;-76
2022/04/06 13:10:01;;;;;;;1.65;1.40;;;;;;;;;;5100129;28;20203;-76
2022/04/06 13:12:29;;;;;;;1.90;1.40;;;;;;;;;;5097427;28;20198;-77
2022/04/06 13:14:59;;;;;;;3.47;1.45;;;;;;;;;;5088046;28;20559;-76
2022/04/06 13:17:27;;;;;;;1.60;1.42;;;;;;;;;;5094480;28;20247;-77
2022/04/06 13:19:54;;;;;;;1.40;1.30;;;;;;;;;;5107981;28;20258;-78
2022/04/06 13:22:21;;;;;;;2.55;1.25;;;;;;;;;;5098513;28;20282;-77
2022/04/06 13:24:48;;;;;;;3.30;1.42;;;;;;;;;;5105211;28;20221;-78
2022/04/06 13:27:15;;;;;;;1.50;1.30;;;;;;;;;;5105750;28;20197;-77
2022/04/06 13:29:43;;;;;;;2.08;1.33;;;;;;;;;;5104297;28;20585;-76
2022/04/06 13:32:12;;;;;;;1.20;1.10;;;;;;;;;;5107966;28;20587;-77
2022/04/06 13:34:39;;;;;;;2.03;1.52;;;;;;;;;;5100701;28;20201;-77
2022/04/06 13:37:07;;;;;;;2.25;2.05;;;;;;;;;;5088270;28;20193;-76
2022/04/06 13:39:34;;;;;;;1.48;1.00;;;;;;;;;;5091194;28;20194;-77
2022/04/06 13:42:02;;;;;;;1.52;1.42;;;;;;;;;;5092108;28;20632;-77
2022/04/06 13:44:31;;;;;;;1.83;1.58;;;;;;;;;;5075268;28;20697;-77
2022/04/06 13:46:58;;;;;;;3.60;1.73;;;;;;;;;;5074841;28;20793;-77
2022/04/06 13:49:27;;;;;;;2.28;1.80;;;;;;;;;;5081126;28;20565;-77
2022/04/06 13:51:55;;;;;;;3.97;1.35;;;;;;;;;;5072796;28;20198;-78
2022/04/06 13:54:23;;;;;;;2.78;1.30;;;;;;;;;;5089136;28;20284;-77
2022/04/06 13:56:50;;;;;;;3.15;1.50;;;;;;;;;;5089391;28;20409;-77
2022/04/06 13:59:18;;;;;;;3.88;1.42;;;;;;;;;;5089132;28;20687;-76
2022/04/06 14:01:45;;;;;;;2.67;1.40;;;;;;;;;;5090198;28;20220;-77
2022/04/06 14:04:12;;;;;;;1.42;1.30;;;;;;;;;;5079838;28;20240;-76
2022/04/06 14:06:41;;;;;;;2.60;1.30;;;;;;;;;;5085056;28;20225;-76
2022/04/06 14:09:09;;;;;;;3.92;1.35;;;;;;;;;;5085748;28;20197;-79
2022/04/06 14:11:36;;;;;;;1.40;1.13;;;;;;;;;;5088970;28;20271;-76
2022/04/06 14:14:04;;;;;;;4.63;1.65;;;;;;;;;;5079098;28;20201;-77
2022/04/06 14:16:31;;;;;;;1.30;1.20;;;;;;;;;;5083599;28;20201;-77
2022/04/06 14:18:59;;;;;;;3.53;1.15;;;;;;;;;;5083295;28;20780;-76
2022/04/06 14:21:28;;;;;;;4.03;1.70;;;;;;;;;;5093132;28;20196;-78
2022/04/06 14:23:57;;;;;;;2.25;1.40;;;;;;;;;;5079356;28;20309;-77
2022/04/06 14:26:24;;;;;;;1.58;1.10;;;;;;;;;;5082017;28;20194;-76
2022/04/06 14:28:51;;;;;;;4.80;1.35;;;;;;;;;;5088900;28;20692;-77
2022/04/06 14:31:18;;;;;;;1.90;1.45;;;;;;;;;;5086904;28;20201;-77
2022/04/06 14:33:46;;;;;;;1.60;1.50;;;;;;;;;;5080625;28;20534;-79
2022/04/06 14:36:13;;;;;;;1.70;1.30;;;;;;;;;;5075968;28;20197;-79
2022/04/06 14:38:40;;;;;;;2.35;1.50;;;;;;;;;;5090457;28;20213;-77
2022/04/06 14:41:09;;;;;;;2.25;1.48;;;;;;;;;;5092731;28;20193;-78
2022/04/06 14:43:37;;;;;;;1.42;1.33;;;;;;;;;;5088213;28;20325;-78
2022/04/06 14:46:06;;;;;;;2.38;1.60;;;;;;;;;;5079220;28;20198;-78
2022/04/06 14:48:33;;;;;;;1.67;1.45;;;;;;;;;;5087274;28;20189;-77
2022/04/06 14:51:00;;;;;;;2.80;2.00;;;;;;;;;;5091170;28;20198;-77
2022/04/06 14:53:28;;;;;;;1.73;1.63;;;;;;;;;;5081809;28;20640;-77
2022/04/06 14:55:55;;;;;;;1.25;1.15;;;;;;;;;;5092438;28;20221;-77